createdAt,value
2017-10-23T00:02:56.311Z,3.20
2017-10-23T00:06:21.481Z,4.40
2017-10-23T00:09:47.879Z,4.20
2017-10-23T00:13:12.971Z,3.27
2017-10-23T00:16:38.180Z,4.33
2017-10-23T00:20:03.575Z,3.53
2017-10-23T00:23:29.164Z,4.80
2017-10-23T00:26:54.555Z,4.53
2017-10-23T00:30:20.202Z,2.37
2017-10-23T00:33:45.319Z,4.10
2017-10-23T00:37:10.572Z,4.00
2017-10-23T00:40:41.316Z,2.10
2017-10-23T00:44:06.428Z,3.27
2017-10-23T00:47:31.530Z,1.70
2017-10-23T00:50:56.950Z,4.53
2017-10-23T00:54:22.108Z,3.30
2017-10-23T00:57:48.259Z,4.37
2017-10-23T01:01:15.513Z,3.57
2017-10-23T01:04:41.603Z,3.03
2017-10-23T01:08:06.870Z,5.67
2017-10-23T01:11:36.871Z,4.00
2017-10-23T01:15:03.686Z,3.50
2017-10-23T01:18:29.232Z,3.40
2017-10-23T01:21:54.452Z,5.30
2017-10-23T01:25:19.628Z,1.70
2017-10-23T01:28:46.054Z,2.70
2017-10-23T01:32:11.238Z,2.40
2017-10-23T01:35:37.206Z,4.57
2017-10-23T01:39:09.415Z,3.30
2017-10-23T01:42:34.643Z,5.33
2017-10-23T01:46:01.766Z,3.33
2017-10-23T01:49:30.861Z,2.63
2017-10-23T01:52:55.936Z,1.90
2017-10-23T01:56:22.402Z,2.10
2017-10-23T01:59:53.753Z,5.03
2017-10-23T02:03:18.872Z,3.20
2017-10-23T02:06:45.101Z,2.77
2017-10-23T02:10:15.187Z,2.80
2017-10-23T02:13:41.606Z,3.90
2017-10-23T02:17:06.769Z,2.90
2017-10-23T02:20:34.290Z,2.93
2017-10-23T02:23:59.449Z,3.47
2017-10-23T02:27:24.603Z,5.00
2017-10-23T02:30:50.111Z,2.97
2017-10-23T02:34:15.846Z,3.50
2017-10-23T02:37:41.298Z,4.23
2017-10-23T02:41:13.636Z,4.73
2017-10-23T02:44:38.741Z,2.67
2017-10-23T02:48:04.342Z,4.90
2017-10-23T02:51:29.856Z,2.30
2017-10-23T02:54:55.097Z,3.57
2017-10-23T02:58:20.549Z,5.27
2017-10-23T03:02:00.289Z,3.60
2017-10-23T03:05:25.622Z,5.63
2017-10-23T03:08:51.366Z,5.47
2017-10-23T03:12:18.762Z,1.97
2017-10-23T03:15:44.679Z,1.77
2017-10-23T03:23:06.537Z,2.43
2017-10-23T03:26:31.926Z,6.27
2017-10-23T03:29:59.211Z,4.03
2017-10-23T03:33:30.154Z,7.40
2017-10-23T03:36:55.435Z,2.10
2017-10-23T03:40:20.759Z,2.90
2017-10-23T03:43:47.399Z,4.40
2017-10-23T03:47:12.520Z,3.33
2017-10-23T03:50:37.821Z,3.43
2017-10-23T03:54:19.257Z,2.73
2017-10-23T03:57:44.643Z,3.03
2017-10-23T04:01:09.901Z,3.37
2017-10-23T04:04:36.007Z,2.90
2017-10-23T04:08:01.162Z,2.10
2017-10-23T04:11:26.592Z,3.20
2017-10-23T04:14:52.237Z,4.00
2017-10-23T04:18:18.282Z,3.90
2017-10-23T04:21:44.194Z,2.30
2017-10-23T04:25:09.827Z,1.03
2017-10-23T04:28:35.061Z,3.30
2017-10-23T04:32:00.440Z,3.00
2017-10-23T04:35:26.733Z,2.43
2017-10-23T04:38:52.767Z,1.70
2017-10-23T04:42:18.751Z,4.27
2017-10-23T04:45:48.219Z,2.60
2017-10-23T04:49:14.538Z,2.40
2017-10-23T04:52:39.928Z,2.90
2017-10-23T04:56:05.826Z,2.20
2017-10-23T04:59:31.587Z,2.13
2017-10-23T05:02:57.736Z,3.10
2017-10-23T05:06:23.677Z,3.70
2017-10-23T05:09:50.464Z,2.70
2017-10-23T05:13:16.087Z,2.63
2017-10-23T05:16:42.725Z,2.80
2017-10-23T05:20:08.680Z,2.23
2017-10-23T05:23:33.876Z,3.23
2017-10-23T05:26:59.413Z,2.87
2017-10-23T05:30:24.713Z,3.37
2017-10-23T05:33:50.099Z,2.70
2017-10-23T05:37:21.628Z,4.60
2017-10-23T05:40:47.816Z,5.63
2017-10-23T05:44:12.965Z,2.93
2017-10-23T05:51:35.135Z,3.50
2017-10-23T05:55:01.167Z,2.47
2017-10-23T05:58:26.604Z,2.30
2017-10-23T06:01:54.147Z,6.60
2017-10-23T06:05:19.319Z,5.03
2017-10-23T06:08:45.803Z,5.33
2017-10-23T06:12:12.869Z,4.23
2017-10-23T06:15:38.761Z,5.17
2017-10-23T06:19:04.097Z,5.43
2017-10-23T06:22:35.227Z,3.00
2017-10-23T06:26:00.633Z,5.93
2017-10-23T06:29:26.151Z,6.00
2017-10-23T06:32:51.933Z,8.73
2017-10-23T06:36:17.942Z,6.50
2017-10-23T06:39:44.454Z,7.87
2017-10-23T06:43:11.839Z,6.30
2017-10-23T06:46:37.071Z,8.47
2017-10-23T06:50:07.424Z,4.77
2017-10-23T06:53:35.341Z,5.63
2017-10-23T06:57:00.630Z,7.03
2017-10-23T07:00:27.583Z,4.60
2017-10-23T07:03:52.817Z,7.97
2017-10-23T07:07:18.309Z,6.60
2017-10-23T07:10:45.226Z,5.93
2017-10-23T07:14:10.725Z,7.13
2017-10-23T07:17:36.653Z,4.67
2017-10-23T07:21:12.731Z,5.00
2017-10-23T07:24:38.009Z,6.93
2017-10-23T07:28:04.730Z,9.40
2017-10-23T07:31:30.715Z,6.83
2017-10-23T07:34:55.841Z,7.70
2017-10-23T07:38:21.092Z,7.30
2017-10-23T07:41:55.116Z,10.13
2017-10-23T07:45:20.358Z,6.20
2017-10-23T07:48:46.308Z,11.73
2017-10-23T07:52:13.971Z,6.13
2017-10-23T07:55:39.130Z,6.57
2017-10-23T07:59:04.384Z,5.23
2017-10-23T08:06:20.097Z,5.37
2017-10-23T08:09:45.507Z,5.60
2017-10-23T08:13:13.386Z,8.50
2017-10-23T08:16:39.323Z,5.50
2017-10-23T08:20:04.539Z,3.57
2017-10-23T08:23:32.787Z,4.73
2017-10-23T08:26:57.932Z,4.03
2017-10-23T08:30:23.837Z,5.37
2017-10-23T08:33:51.559Z,4.57
2017-10-23T08:37:19.731Z,4.03
2017-10-23T08:40:49.927Z,3.70
2017-10-23T08:44:17.115Z,4.13
2017-10-23T08:47:44.059Z,7.60
2017-10-23T08:51:31.800Z,3.87
2017-10-23T08:54:58.143Z,4.73
2017-10-23T08:58:24.169Z,6.03
2017-10-23T09:01:53.479Z,7.23
2017-10-23T09:05:18.683Z,4.23
2017-10-23T09:08:45.886Z,3.40
2017-10-23T09:12:24.823Z,2.93
2017-10-23T09:15:50.073Z,4.40
2017-10-23T09:19:16.039Z,4.93
2017-10-23T09:22:42.743Z,5.53
2017-10-23T09:26:08.194Z,2.93
2017-10-23T09:29:33.633Z,3.50
2017-10-23T09:33:03.539Z,5.13
2017-10-23T09:36:29.596Z,1.63
2017-10-23T09:39:58.342Z,3.50
2017-10-23T09:43:26.779Z,3.33
2017-10-23T09:46:51.876Z,3.27
2017-10-23T09:50:19.616Z,4.63
2017-10-23T09:53:48.649Z,5.90
2017-10-23T09:57:14.249Z,2.47
2017-10-23T10:00:39.376Z,2.87
2017-10-23T10:04:05.072Z,4.77
2017-10-23T10:07:30.771Z,2.30
2017-10-23T10:10:56.729Z,1.90
2017-10-23T10:14:22.602Z,3.53
2017-10-23T10:17:49.472Z,3.93
2017-10-23T10:21:16.115Z,2.03
2017-10-23T10:24:46.895Z,2.80
2017-10-23T10:28:12.059Z,2.70
2017-10-23T10:31:40.158Z,2.20
2017-10-23T10:35:07.607Z,2.90
2017-10-23T10:38:33.787Z,5.57
2017-10-23T10:41:59.852Z,3.67
2017-10-23T10:45:27.262Z,2.53
2017-10-23T10:48:52.488Z,1.70
2017-10-23T10:52:30.089Z,1.50
2017-10-23T10:55:55.434Z,2.97
2017-10-23T10:59:21.263Z,6.43
2017-10-23T11:02:48.061Z,4.20
2017-10-23T11:06:14.248Z,2.60
2017-10-23T11:09:39.430Z,2.77
2017-10-23T11:13:06.459Z,3.53
2017-10-23T11:16:33.184Z,1.80
2017-10-23T11:20:00.092Z,2.70
2017-10-23T11:23:27.647Z,3.40
2017-10-23T11:26:53.970Z,5.13
2017-10-23T11:30:29.205Z,3.50
2017-10-23T11:33:55.283Z,2.70
2017-10-23T11:37:21.923Z,5.07
2017-10-23T11:40:48.471Z,3.03
2017-10-23T11:44:15.532Z,2.13
2017-10-23T11:47:42.806Z,2.50
2017-10-23T11:51:12.816Z,4.53
2017-10-23T11:54:38.199Z,2.63
2017-10-23T11:58:03.663Z,3.10
2017-10-23T12:01:29.387Z,3.17
2017-10-23T12:04:56.268Z,1.70
2017-10-23T12:08:22.784Z,2.80
2017-10-23T12:11:48.905Z,2.07
2017-10-23T12:15:14.668Z,4.10
2017-10-23T12:18:40.063Z,2.93
2017-10-23T12:22:10.402Z,3.40
2017-10-23T12:25:38.976Z,2.87
2017-10-23T12:29:07.586Z,1.83
2017-10-23T12:32:35.392Z,2.47
2017-10-23T12:36:08.824Z,1.93
2017-10-23T12:39:36.352Z,1.83
2017-10-23T12:43:02.913Z,4.50
2017-10-23T12:46:28.711Z,4.33
2017-10-23T12:49:54.735Z,2.90
2017-10-23T12:53:20.918Z,1.80
2017-10-23T12:56:53.755Z,1.97
2017-10-23T13:00:19.486Z,4.93
2017-10-23T13:03:46.236Z,3.03
2017-10-23T13:07:16.047Z,3.10
2017-10-23T13:10:43.773Z,1.83
2017-10-23T13:14:09.257Z,2.27
2017-10-23T13:17:34.425Z,3.57
2017-10-23T13:21:03.174Z,2.10
2017-10-23T13:24:41.110Z,2.60
2017-10-23T13:28:06.595Z,1.40
2017-10-23T13:31:32.351Z,1.40
2017-10-23T13:34:58.134Z,4.00
2017-10-23T13:38:24.140Z,3.70
2017-10-23T13:41:49.318Z,2.23
2017-10-23T13:45:15.780Z,2.63
2017-10-23T13:48:41.477Z,2.33
2017-10-23T13:52:06.776Z,3.00
2017-10-23T13:55:39.411Z,1.33
2017-10-23T13:59:06.652Z,1.17
2017-10-23T14:02:32.993Z,2.50
2017-10-23T14:05:59.641Z,3.13
2017-10-23T14:09:25.124Z,2.70
2017-10-23T14:12:51.295Z,2.53
2017-10-23T14:16:19.827Z,2.00
2017-10-23T14:19:45.935Z,3.07
2017-10-23T14:23:12.038Z,2.27
2017-10-23T14:26:39.487Z,1.57
2017-10-23T14:30:04.862Z,1.70
2017-10-23T14:33:31.248Z,2.30
2017-10-23T14:36:59.172Z,2.10
2017-10-23T14:40:24.544Z,1.60
2017-10-23T14:43:50.504Z,1.93
2017-10-23T14:47:38.064Z,2.10
2017-10-23T14:51:04.438Z,2.10
2017-10-23T14:54:31.124Z,1.50
2017-10-23T14:57:59.492Z,3.30
2017-10-23T15:01:25.899Z,1.93
2017-10-23T15:04:51.346Z,1.90
2017-10-23T15:08:17.350Z,1.23
2017-10-23T15:11:44.256Z,3.87
2017-10-23T15:15:22.950Z,1.50
2017-10-23T15:18:48.529Z,1.57
2017-10-23T15:22:15.304Z,1.97
2017-10-23T15:25:41.367Z,1.67
2017-10-23T15:29:06.921Z,1.67
2017-10-23T15:36:29.318Z,1.50
2017-10-23T15:39:56.232Z,8.27
2017-10-23T15:43:33.007Z,3.50
2017-10-23T15:46:58.215Z,1.47
2017-10-23T15:50:23.420Z,10.53
2017-10-23T15:53:49.086Z,6.20
2017-10-23T15:57:14.826Z,1.80
2017-10-23T16:00:41.352Z,10.67
2017-10-23T16:04:07.626Z,1.53
2017-10-23T16:07:36.337Z,1.93
2017-10-23T16:11:01.914Z,2.50
2017-10-23T16:14:27.148Z,2.13
2017-10-23T16:17:52.264Z,1.03
2017-10-23T16:21:17.375Z,2.30
2017-10-23T16:24:42.606Z,1.37
2017-10-23T16:28:07.863Z,2.60
2017-10-23T16:31:33.016Z,3.27
2017-10-23T16:34:58.248Z,1.23
2017-10-23T16:38:23.563Z,2.20
2017-10-23T16:41:48.740Z,1.70
2017-10-23T16:45:14.941Z,1.40
2017-10-23T16:48:40.928Z,1.30
2017-10-23T16:52:06.154Z,2.03
2017-10-23T16:55:37.731Z,1.37
2017-10-23T16:59:04.748Z,2.93
2017-10-23T17:02:31.592Z,1.80
2017-10-23T17:06:01.180Z,1.53
2017-10-23T17:09:26.653Z,1.50
2017-10-23T17:12:51.911Z,2.03
2017-10-23T17:16:17.313Z,1.40
2017-10-23T17:19:42.528Z,1.40
2017-10-23T17:23:07.632Z,3.33
2017-10-23T17:26:34.553Z,1.70
2017-10-23T17:30:00.106Z,2.40
2017-10-23T17:33:26.117Z,1.73
2017-10-23T17:37:05.098Z,3.30
2017-10-23T17:40:30.346Z,1.47
2017-10-23T17:43:55.483Z,2.47
2017-10-23T17:47:22.698Z,1.50
2017-10-23T17:50:48.677Z,2.70
2017-10-23T17:54:13.919Z,1.53
2017-10-23T17:57:40.540Z,1.33
2017-10-23T18:01:05.783Z,2.50
2017-10-23T18:04:31.738Z,3.70
2017-10-23T18:07:57.585Z,2.87
2017-10-23T18:11:23.507Z,1.30
2017-10-23T18:14:48.671Z,3.13
2017-10-23T18:18:19.771Z,1.77
2017-10-23T18:21:45.323Z,1.50
2017-10-23T18:25:10.964Z,1.70
2017-10-23T18:28:36.455Z,4.30
2017-10-23T18:32:03.552Z,6.97
2017-10-23T18:35:30.428Z,26.13
2017-10-23T18:39:00.311Z,19.43
2017-10-23T18:42:25.646Z,15.33
2017-10-23T18:45:51.501Z,16.00
2017-10-23T18:49:17.777Z,9.90
2017-10-23T18:52:46.080Z,10.03
2017-10-23T18:56:16.681Z,10.37
2017-10-23T18:59:44.974Z,11.23
2017-10-23T19:03:10.533Z,22.70
2017-10-23T19:06:46.102Z,5.70
2017-10-23T19:10:14.802Z,9.10
2017-10-23T19:13:46.533Z,9.30
2017-10-23T19:21:37.866Z,10.23
2017-10-23T19:25:06.647Z,9.43
2017-10-23T19:28:37.254Z,4.33
2017-10-23T19:32:05.936Z,5.70
2017-10-23T19:35:34.199Z,5.17
2017-10-23T19:39:00.778Z,4.67
2017-10-23T19:42:28.196Z,4.73
2017-10-23T19:45:54.482Z,5.63
2017-10-23T19:49:19.898Z,5.80
2017-10-23T19:52:46.356Z,5.57
2017-10-23T19:56:12.587Z,4.37
2017-10-23T19:59:37.979Z,7.07
2017-10-23T20:03:03.542Z,17.20
2017-10-23T20:06:29.370Z,4.63
2017-10-23T20:09:54.889Z,5.80
2017-10-23T20:13:20.282Z,6.33
2017-10-23T20:16:46.281Z,9.03
2017-10-23T20:20:12.044Z,3.80
2017-10-23T20:23:40.393Z,7.50
2017-10-23T20:27:06.783Z,5.87
2017-10-23T20:30:32.976Z,5.10
2017-10-23T20:33:58.401Z,6.43
2017-10-23T20:37:25.943Z,4.33
2017-10-23T20:40:51.594Z,4.83
2017-10-23T20:44:17.014Z,12.37
2017-10-23T20:47:44.720Z,11.27
2017-10-23T20:51:10.265Z,7.30
2017-10-23T20:54:36.187Z,7.13
2017-10-23T20:58:03.215Z,7.40
2017-10-23T21:01:28.970Z,6.47
2017-10-23T21:04:54.454Z,6.80
2017-10-23T21:08:20.385Z,5.60
2017-10-23T21:11:46.125Z,3.23
2017-10-23T21:15:11.586Z,4.23
2017-10-23T21:18:37.076Z,5.80
2017-10-23T21:22:02.582Z,4.20
2017-10-23T21:25:28.113Z,7.37
2017-10-23T21:28:53.938Z,4.80
2017-10-23T21:32:20.169Z,3.23
2017-10-23T21:35:45.541Z,5.77
2017-10-23T21:39:11.350Z,5.10
2017-10-23T21:42:36.737Z,6.50
2017-10-23T21:46:02.256Z,2.50
2017-10-23T21:49:29.153Z,4.77
2017-10-23T21:52:54.555Z,3.80
2017-10-23T21:56:20.015Z,6.00
2017-10-23T21:59:46.467Z,2.83
2017-10-23T22:03:13.397Z,5.73
2017-10-23T22:06:38.957Z,5.93
2017-10-23T22:10:04.962Z,6.13
2017-10-23T22:13:30.473Z,3.60
2017-10-23T22:16:55.981Z,3.80
2017-10-23T22:20:21.436Z,3.87
2017-10-23T22:23:47.580Z,3.53
2017-10-23T22:27:12.965Z,2.90
2017-10-23T22:30:40.085Z,3.13
2017-10-23T22:34:05.786Z,4.20
2017-10-23T22:37:33.434Z,2.57
2017-10-23T22:40:59.182Z,2.70
2017-10-23T22:44:24.759Z,2.20
2017-10-23T22:47:50.075Z,2.13
2017-10-23T22:51:16.398Z,2.47
2017-10-23T22:54:43.060Z,3.03
2017-10-23T22:58:09.131Z,2.47
2017-10-23T23:01:35.222Z,3.50
2017-10-23T23:05:00.841Z,2.50
2017-10-23T23:08:28.322Z,2.53
2017-10-23T23:11:55.720Z,3.03
2017-10-23T23:15:21.468Z,2.50
2017-10-23T23:18:46.885Z,4.80
2017-10-23T23:22:12.466Z,3.70
2017-10-23T23:25:37.940Z,3.67
2017-10-23T23:29:03.905Z,4.40
2017-10-23T23:32:29.590Z,4.07
2017-10-23T23:36:35.146Z,3.07
2017-10-23T23:40:00.541Z,2.60
2017-10-23T23:43:26.236Z,2.87
2017-10-23T23:46:52.118Z,2.60
2017-10-23T23:50:18.961Z,2.67
2017-10-23T23:53:45.595Z,2.43
2017-10-23T23:57:11.621Z,2.40
